Bethune, CO (80805)

6:08 AM MST on November 26, 2014 (GMT -0700)
Stratton Equity Coop | Change Station
CLOSE
Current Station
Personal Weather Station
Location: Stratton, CO
Elevation: 4416 ft
Nearby Weather Stations

Elev 4416 ft 39.31 °N, 102.60 °W | Updated 1 second ago

Overcast
Overcast
28.6 °F
Feels Like 19 °F
N
12.0
Wind Variable Wind from NW
Gusts 20.0 mph

Today
High -- | Low -- °F
--% Chance of Precip.
Yesterday
High -- | Low -- °F
Precip. -- in
6:45 AM 4:28 PM
Waxing Crescent, 19% visible
Pressure 30.19 in
Visibility 10.0 miles
Clouds Mostly Cloudy 6000 ft
Windchill 19 °F
Dew Point 26 °F
Humidity 91%
Rainfall 0.00 in
Snow Depth Not available.
UV 0.0 out of 12
Pollen .10 out of 12
Air Quality Not available.
Flu Activity Not available.
METAR KITR 261253Z AUTO 32014KT 10SM BKN060 M02/M04 A3018 RMK AO2 SLP222 T10221039

More Conditions Fewer Conditions

Pressure 30.19 in
Visibility 10.0 miles
Clouds Mostly Cloudy 6000 ft
Windchill 19 °F
Dew Point 26 °F
Humidity 91%
Rainfall 0.00 in
Snow Depth Not available.
UV 0.0 out of 12
Pollen .10 out of 12
Air Quality Not available.
Flu Activity Not available.
METAR KITR 261253Z AUTO 32014KT 10SM BKN060 M02/M04 A3018 RMK AO2 SLP222 T10221039

More Conditions Fewer Conditions

Nowcast | as of 5:03 am MST on November 26, 2014

Some patchy slick spots can be expected on roads and sidewalks early this morning. Light rain and snow that fell overnight could produce some icy spots due to temperatures falling below freezing. Motorists traveling early this morning should use caution due to possible slick spots on highways...including Interstate 70 from Goodland to Flagler Colorado. Pedestrians should also be aware of a thin icy glaze on sidewalks.

×

10-Day Weather Forecast

Almanac

Astronomy

Nov. 26, 2014 Rise Set
Actual Time
Civil Twilight
Nautical Twilight
Astronomical Twilight
Moon
Length of Visible Light
Length of Day
Tomorrow will be .
, % of the Moon is Illuminated

Today's Extremes

State Highs State Lows

Community

WunderPhotos

Upload Photos

1,773,720 photos uploaded!

WunderBlogs® & News

Nearby

Air Quality

  Air Quality AQ Index Pollutant
Not available.

Snow Depth

Station Depth Elevation

Earthquake Activity

City Distance Mag. Time & Date
Minimum magnitude displayed is 2.5.

Coastal Water Temperatures

Place Temperature

Nearby Weather Stations